sensor_id;sensor_type;location;lat;lon;timestamp;P1;durP1;ratioP1;P2;durP2;ratioP2
32637;SDS011;19045;52.268;10.506;2022-09-21T00:01:49;12.30;;;6.68;;
32637;SDS011;19045;52.268;10.506;2022-09-21T00:04:16;10.20;;;7.20;;
32637;SDS011;19045;52.268;10.506;2022-09-21T00:06:43;10.07;;;7.20;;
32637;SDS011;19045;52.268;10.506;2022-09-21T00:09:10;11.40;;;6.47;;
32637;SDS011;19045;52.268;10.506;2022-09-21T00:11:37;15.25;;;7.47;;
32637;SDS011;19045;52.268;10.506;2022-09-21T00:14:07;7.78;;;6.65;;
32637;SDS011;19045;52.268;10.506;2022-09-21T00:16:36;14.25;;;7.78;;
32637;SDS011;19045;52.268;10.506;2022-09-21T00:19:03;11.98;;;7.10;;
32637;SDS011;19045;52.268;10.506;2022-09-21T00:21:31;12.70;;;6.28;;
32637;SDS011;19045;52.268;10.506;2022-09-21T00:23:58;12.52;;;7.10;;
32637;SDS011;19045;52.268;10.506;2022-09-21T00:26:26;10.52;;;6.70;;
32637;SDS011;19045;52.268;10.506;2022-09-21T00:28:53;11.07;;;6.65;;
32637;SDS011;19045;52.268;10.506;2022-09-21T00:31:23;12.73;;;6.45;;
32637;SDS011;19045;52.268;10.506;2022-09-21T00:33:50;11.18;;;6.95;;
32637;SDS011;19045;52.268;10.506;2022-09-21T00:36:18;14.98;;;6.45;;
32637;SDS011;19045;52.268;10.506;2022-09-21T00:38:48;13.35;;;7.20;;
32637;SDS011;19045;52.268;10.506;2022-09-21T00:41:15;11.13;;;6.57;;
32637;SDS011;19045;52.268;10.506;2022-09-21T00:43:44;12.65;;;6.50;;
32637;SDS011;19045;52.268;10.506;2022-09-21T00:46:14;8.27;;;5.82;;
32637;SDS011;19045;52.268;10.506;2022-09-21T00:48:48;10.35;;;6.22;;
32637;SDS011;19045;52.268;10.506;2022-09-21T00:51:15;12.23;;;6.75;;
32637;SDS011;19045;52.268;10.506;2022-09-21T00:53:42;7.93;;;5.90;;
32637;SDS011;19045;52.268;10.506;2022-09-21T00:56:09;9.52;;;6.28;;
32637;SDS011;19045;52.268;10.506;2022-09-21T00:58:39;9.82;;;6.03;;
32637;SDS011;19045;52.268;10.506;2022-09-21T01:01:09;10.73;;;6.47;;
32637;SDS011;19045;52.268;10.506;2022-09-21T01:03:42;9.48;;;6.30;;
32637;SDS011;19045;52.268;10.506;2022-09-21T01:06:11;12.70;;;7.25;;
32637;SDS011;19045;52.268;10.506;2022-09-21T01:08:38;15.85;;;7.07;;
32637;SDS011;19045;52.268;10.506;2022-09-21T01:11:11;11.48;;;6.38;;
32637;SDS011;19045;52.268;10.506;2022-09-21T01:13:55;9.27;;;7.45;;
32637;SDS011;19045;52.268;10.506;2022-09-21T01:16:42;8.13;;;6.43;;
32637;SDS011;19045;52.268;10.506;2022-09-21T01:19:27;13.60;;;6.55;;
32637;SDS011;19045;52.268;10.506;2022-09-21T01:22:12;13.20;;;7.30;;
32637;SDS011;19045;52.268;10.506;2022-09-21T01:24:49;8.63;;;6.00;;
32637;SDS011;19045;52.268;10.506;2022-09-21T01:27:28;9.80;;;6.63;;
32637;SDS011;19045;52.268;10.506;2022-09-21T01:30:16;12.45;;;7.30;;
32637;SDS011;19045;52.268;10.506;2022-09-21T01:32:45;9.13;;;6.60;;
32637;SDS011;19045;52.268;10.506;2022-09-21T01:35:17;8.80;;;6.60;;
32637;SDS011;19045;52.268;10.506;2022-09-21T01:37:47;12.35;;;6.75;;
32637;SDS011;19045;52.268;10.506;2022-09-21T01:40:20;12.07;;;7.78;;
32637;SDS011;19045;52.268;10.506;2022-09-21T01:42:49;12.23;;;7.35;;
32637;SDS011;19045;52.268;10.506;2022-09-21T01:45:21;10.60;;;6.93;;
32637;SDS011;19045;52.268;10.506;2022-09-21T01:47:53;10.27;;;6.97;;
32637;SDS011;19045;52.268;10.506;2022-09-21T01:50:22;11.50;;;8.20;;
32637;SDS011;19045;52.268;10.506;2022-09-21T01:52:51;12.25;;;7.18;;
32637;SDS011;19045;52.268;10.506;2022-09-21T01:55:22;10.77;;;7.30;;
32637;SDS011;19045;52.268;10.506;2022-09-21T01:57:54;10.27;;;7.70;;
32637;SDS011;19045;52.268;10.506;2022-09-21T02:00:26;10.10;;;7.05;;
32637;SDS011;19045;52.268;10.506;2022-09-21T02:02:55;12.82;;;7.75;;
32637;SDS011;19045;52.268;10.506;2022-09-21T02:07:54;17.88;;;8.27;;
32637;SDS011;19045;52.268;10.506;2022-09-21T02:10:23;13.68;;;8.57;;
32637;SDS011;19045;52.268;10.506;2022-09-21T02:12:59;11.77;;;8.20;;
32637;SDS011;19045;52.268;10.506;2022-09-21T02:15:43;13.45;;;7.85;;
32637;SDS011;19045;52.268;10.506;2022-09-21T02:18:30;13.55;;;7.72;;
32637;SDS011;19045;52.268;10.506;2022-09-21T02:21:07;12.75;;;7.47;;
32637;SDS011;19045;52.268;10.506;2022-09-21T02:23:41;9.85;;;7.65;;
32637;SDS011;19045;52.268;10.506;2022-09-21T02:26:11;11.32;;;8.13;;
32637;SDS011;19045;52.268;10.506;2022-09-21T02:28:42;12.27;;;7.30;;
32637;SDS011;19045;52.268;10.506;2022-09-21T02:31:19;14.35;;;8.05;;
32637;SDS011;19045;52.268;10.506;2022-09-21T02:33:52;11.38;;;7.78;;
32637;SDS011;19045;52.268;10.506;2022-09-21T02:36:25;11.35;;;7.25;;
32637;SDS011;19045;52.268;10.506;2022-09-21T02:39:01;12.77;;;7.45;;
32637;SDS011;19045;52.268;10.506;2022-09-21T02:41:33;11.00;;;7.13;;
32637;SDS011;19045;52.268;10.506;2022-09-21T02:44:10;12.55;;;8.02;;
32637;SDS011;19045;52.268;10.506;2022-09-21T02:46:44;14.35;;;8.02;;
32637;SDS011;19045;52.268;10.506;2022-09-21T02:49:16;12.48;;;8.98;;
32637;SDS011;19045;52.268;10.506;2022-09-21T02:51:46;13.13;;;7.78;;
32637;SDS011;19045;52.268;10.506;2022-09-21T02:54:20;13.20;;;7.93;;
32637;SDS011;19045;52.268;10.506;2022-09-21T02:56:52;15.02;;;8.43;;
32637;SDS011;19045;52.268;10.506;2022-09-21T02:59:20;10.52;;;8.68;;
32637;SDS011;19045;52.268;10.506;2022-09-21T03:01:49;14.60;;;9.18;;
32637;SDS011;19045;52.268;10.506;2022-09-21T03:04:17;14.95;;;8.27;;
32637;SDS011;19045;52.268;10.506;2022-09-21T03:06:43;14.35;;;8.23;;
32637;SDS011;19045;52.268;10.506;2022-09-21T03:09:10;14.50;;;8.32;;
32637;SDS011;19045;52.268;10.506;2022-09-21T03:11:37;11.27;;;7.72;;
32637;SDS011;19045;52.268;10.506;2022-09-21T03:14:06;12.80;;;8.30;;
32637;SDS011;19045;52.268;10.506;2022-09-21T03:16:33;11.00;;;7.60;;
32637;SDS011;19045;52.268;10.506;2022-09-21T03:19:01;15.63;;;8.02;;
32637;SDS011;19045;52.268;10.506;2022-09-21T03:21:28;15.75;;;8.30;;
32637;SDS011;19045;52.268;10.506;2022-09-21T03:23:55;13.48;;;7.95;;
32637;SDS011;19045;52.268;10.506;2022-09-21T03:26:21;12.63;;;7.22;;
32637;SDS011;19045;52.268;10.506;2022-09-21T03:28:48;12.43;;;7.40;;
32637;SDS011;19045;52.268;10.506;2022-09-21T03:31:15;10.07;;;7.55;;
32637;SDS011;19045;52.268;10.506;2022-09-21T03:33:42;10.52;;;7.25;;
32637;SDS011;19045;52.268;10.506;2022-09-21T03:36:10;16.58;;;8.00;;
32637;SDS011;19045;52.268;10.506;2022-09-21T03:38:36;9.43;;;7.38;;
32637;SDS011;19045;52.268;10.506;2022-09-21T03:41:03;10.05;;;7.20;;
32637;SDS011;19045;52.268;10.506;2022-09-21T03:43:31;15.13;;;7.53;;
32637;SDS011;19045;52.268;10.506;2022-09-21T03:45:58;15.40;;;7.78;;
32637;SDS011;19045;52.268;10.506;2022-09-21T03:48:25;11.43;;;7.10;;
32637;SDS011;19045;52.268;10.506;2022-09-21T03:50:51;17.92;;;7.35;;
32637;SDS011;19045;52.268;10.506;2022-09-21T03:53:19;15.48;;;7.50;;
32637;SDS011;19045;52.268;10.506;2022-09-21T03:55:46;14.00;;;7.18;;
32637;SDS011;19045;52.268;10.506;2022-09-21T03:58:12;10.63;;;6.88;;
32637;SDS011;19045;52.268;10.506;2022-09-21T04:00:40;10.95;;;6.38;;
32637;SDS011;19045;52.268;10.506;2022-09-21T04:03:07;15.15;;;7.32;;
32637;SDS011;19045;52.268;10.506;2022-09-21T04:05:34;14.00;;;7.43;;
32637;SDS011;19045;52.268;10.506;2022-09-21T04:08:00;13.15;;;6.78;;
32637;SDS011;19045;52.268;10.506;2022-09-21T04:10:28;11.68;;;7.55;;
32637;SDS011;19045;52.268;10.506;2022-09-21T04:12:57;13.70;;;7.85;;
32637;SDS011;19045;52.268;10.506;2022-09-21T04:15:26;14.43;;;8.30;;
32637;SDS011;19045;52.268;10.506;2022-09-21T04:17:53;13.00;;;7.93;;
32637;SDS011;19045;52.268;10.506;2022-09-21T04:20:20;15.85;;;8.98;;
32637;SDS011;19045;52.268;10.506;2022-09-21T04:22:47;14.35;;;8.30;;
32637;SDS011;19045;52.268;10.506;2022-09-21T04:25:15;13.57;;;8.02;;
32637;SDS011;19045;52.268;10.506;2022-09-21T04:27:43;16.23;;;9.00;;
32637;SDS011;19045;52.268;10.506;2022-09-21T04:30:10;12.98;;;8.48;;
32637;SDS011;19045;52.268;10.506;2022-09-21T04:32:38;13.23;;;8.93;;
32637;SDS011;19045;52.268;10.506;2022-09-21T04:35:05;13.55;;;8.48;;
32637;SDS011;19045;52.268;10.506;2022-09-21T04:37:32;11.95;;;8.00;;
32637;SDS011;19045;52.268;10.506;2022-09-21T04:39:59;15.63;;;10.73;;
32637;SDS011;19045;52.268;10.506;2022-09-21T04:42:26;16.20;;;8.00;;
32637;SDS011;19045;52.268;10.506;2022-09-21T04:44:54;16.33;;;8.57;;
32637;SDS011;19045;52.268;10.506;2022-09-21T04:47:21;14.75;;;8.77;;
32637;SDS011;19045;52.268;10.506;2022-09-21T04:49:49;16.08;;;8.25;;
32637;SDS011;19045;52.268;10.506;2022-09-21T04:52:16;11.85;;;6.78;;
32637;SDS011;19045;52.268;10.506;2022-09-21T04:54:43;10.93;;;7.30;;
32637;SDS011;19045;52.268;10.506;2022-09-21T04:57:10;10.50;;;7.63;;
32637;SDS011;19045;52.268;10.506;2022-09-21T04:59:37;12.88;;;8.15;;
32637;SDS011;19045;52.268;10.506;2022-09-21T05:02:05;12.07;;;7.95;;
32637;SDS011;19045;52.268;10.506;2022-09-21T05:04:32;11.63;;;7.68;;
32637;SDS011;19045;52.268;10.506;2022-09-21T05:06:59;10.25;;;7.38;;
32637;SDS011;19045;52.268;10.506;2022-09-21T05:09:26;12.20;;;6.85;;
32637;SDS011;19045;52.268;10.506;2022-09-21T05:12:10;9.82;;;6.80;;
32637;SDS011;19045;52.268;10.506;2022-09-21T05:14:36;10.02;;;7.18;;
32637;SDS011;19045;52.268;10.506;2022-09-21T05:17:03;11.02;;;7.07;;
32637;SDS011;19045;52.268;10.506;2022-09-21T05:19:31;12.88;;;7.40;;
32637;SDS011;19045;52.268;10.506;2022-09-21T05:21:58;15.68;;;8.75;;
32637;SDS011;19045;52.268;10.506;2022-09-21T05:24:24;10.90;;;7.53;;
32637;SDS011;19045;52.268;10.506;2022-09-21T05:26:51;13.20;;;8.35;;
32637;SDS011;19045;52.268;10.506;2022-09-21T05:29:18;17.33;;;9.02;;
32637;SDS011;19045;52.268;10.506;2022-09-21T05:31:46;13.70;;;8.05;;
32637;SDS011;19045;52.268;10.506;2022-09-21T05:34:17;13.13;;;9.07;;
32637;SDS011;19045;52.268;10.506;2022-09-21T05:36:59;15.30;;;9.35;;
32637;SDS011;19045;52.268;10.506;2022-09-21T05:39:31;14.90;;;8.93;;
32637;SDS011;19045;52.268;10.506;2022-09-21T05:41:58;16.13;;;9.30;;
32637;SDS011;19045;52.268;10.506;2022-09-21T05:44:25;14.45;;;9.52;;
32637;SDS011;19045;52.268;10.506;2022-09-21T05:46:53;19.60;;;10.55;;
32637;SDS011;19045;52.268;10.506;2022-09-21T05:49:29;17.13;;;10.40;;
32637;SDS011;19045;52.268;10.506;2022-09-21T05:52:08;12.57;;;9.23;;
32637;SDS011;19045;52.268;10.506;2022-09-21T05:54:47;25.67;;;10.27;;
32637;SDS011;19045;52.268;10.506;2022-09-21T05:57:27;14.68;;;9.30;;
32637;SDS011;19045;52.268;10.506;2022-09-21T06:00:08;14.55;;;9.95;;
32637;SDS011;19045;52.268;10.506;2022-09-21T06:02:43;21.88;;;10.23;;
32637;SDS011;19045;52.268;10.506;2022-09-21T06:05:18;13.55;;;8.85;;
32637;SDS011;19045;52.268;10.506;2022-09-21T06:07:47;14.25;;;9.25;;
32637;SDS011;19045;52.268;10.506;2022-09-21T06:10:14;13.57;;;9.20;;
32637;SDS011;19045;52.268;10.506;2022-09-21T06:12:41;20.15;;;9.18;;
32637;SDS011;19045;52.268;10.506;2022-09-21T06:15:09;14.43;;;7.93;;
32637;SDS011;19045;52.268;10.506;2022-09-21T06:17:37;16.60;;;8.93;;
32637;SDS011;19045;52.268;10.506;2022-09-21T06:20:05;15.13;;;7.82;;
32637;SDS011;19045;52.268;10.506;2022-09-21T06:22:32;15.07;;;7.93;;
32637;SDS011;19045;52.268;10.506;2022-09-21T06:25:01;15.57;;;8.73;;
32637;SDS011;19045;52.268;10.506;2022-09-21T06:27:27;15.52;;;8.60;;
32637;SDS011;19045;52.268;10.506;2022-09-21T06:29:54;16.92;;;8.65;;
32637;SDS011;19045;52.268;10.506;2022-09-21T06:32:21;16.95;;;8.55;;
32637;SDS011;19045;52.268;10.506;2022-09-21T06:34:48;13.27;;;8.20;;
32637;SDS011;19045;52.268;10.506;2022-09-21T06:37:15;13.80;;;8.93;;
32637;SDS011;19045;52.268;10.506;2022-09-21T06:39:41;12.98;;;8.07;;
32637;SDS011;19045;52.268;10.506;2022-09-21T06:42:09;11.75;;;8.10;;
32637;SDS011;19045;52.268;10.506;2022-09-21T06:44:36;11.27;;;7.43;;
32637;SDS011;19045;52.268;10.506;2022-09-21T06:47:03;14.55;;;7.80;;
32637;SDS011;19045;52.268;10.506;2022-09-21T06:49:29;11.45;;;7.47;;
32637;SDS011;19045;52.268;10.506;2022-09-21T06:51:56;15.70;;;7.55;;
32637;SDS011;19045;52.268;10.506;2022-09-21T06:54:23;14.15;;;8.05;;
32637;SDS011;19045;52.268;10.506;2022-09-21T06:56:50;18.55;;;7.75;;
32637;SDS011;19045;52.268;10.506;2022-09-21T06:59:18;13.05;;;8.65;;
32637;SDS011;19045;52.268;10.506;2022-09-21T07:01:45;13.20;;;8.27;;
32637;SDS011;19045;52.268;10.506;2022-09-21T07:04:11;12.55;;;8.18;;
32637;SDS011;19045;52.268;10.506;2022-09-21T07:06:38;10.10;;;7.55;;
32637;SDS011;19045;52.268;10.506;2022-09-21T07:09:04;15.18;;;9.55;;
32637;SDS011;19045;52.268;10.506;2022-09-21T07:11:31;17.02;;;8.93;;
32637;SDS011;19045;52.268;10.506;2022-09-21T07:13:58;12.98;;;7.60;;
32637;SDS011;19045;52.268;10.506;2022-09-21T07:16:26;15.25;;;7.82;;
32637;SDS011;19045;52.268;10.506;2022-09-21T07:18:53;15.05;;;8.68;;
32637;SDS011;19045;52.268;10.506;2022-09-21T07:21:19;24.83;;;8.20;;
32637;SDS011;19045;52.268;10.506;2022-09-21T07:23:46;14.82;;;7.43;;
32637;SDS011;19045;52.268;10.506;2022-09-21T07:26:12;14.32;;;7.18;;
32637;SDS011;19045;52.268;10.506;2022-09-21T07:28:39;14.73;;;7.80;;
32637;SDS011;19045;52.268;10.506;2022-09-21T07:31:06;13.98;;;7.78;;
32637;SDS011;19045;52.268;10.506;2022-09-21T07:33:35;14.00;;;8.18;;
32637;SDS011;19045;52.268;10.506;2022-09-21T07:36:03;16.05;;;8.30;;
32637;SDS011;19045;52.268;10.506;2022-09-21T07:38:42;16.10;;;8.15;;
32637;SDS011;19045;52.268;10.506;2022-09-21T07:41:09;21.73;;;7.75;;
32637;SDS011;19045;52.268;10.506;2022-09-21T07:43:37;13.45;;;8.48;;
32637;SDS011;19045;52.268;10.506;2022-09-21T07:46:04;14.18;;;8.15;;
32637;SDS011;19045;52.268;10.506;2022-09-21T07:48:31;13.48;;;7.63;;
32637;SDS011;19045;52.268;10.506;2022-09-21T07:51:03;13.00;;;8.80;;
32637;SDS011;19045;52.268;10.506;2022-09-21T07:53:31;14.60;;;8.38;;
32637;SDS011;19045;52.268;10.506;2022-09-21T07:56:01;13.55;;;7.47;;
32637;SDS011;19045;52.268;10.506;2022-09-21T07:58:29;12.95;;;7.03;;
32637;SDS011;19045;52.268;10.506;2022-09-21T08:01:13;12.55;;;7.13;;
32637;SDS011;19045;52.268;10.506;2022-09-21T08:03:40;13.38;;;5.82;;
32637;SDS011;19045;52.268;10.506;2022-09-21T08:06:08;12.57;;;6.38;;
32637;SDS011;19045;52.268;10.506;2022-09-21T08:08:35;13.98;;;7.03;;
32637;SDS011;19045;52.268;10.506;2022-09-21T08:11:02;12.05;;;6.07;;
32637;SDS011;19045;52.268;10.506;2022-09-21T08:13:30;13.88;;;6.60;;
32637;SDS011;19045;52.268;10.506;2022-09-21T08:15:57;14.20;;;7.55;;
32637;SDS011;19045;52.268;10.506;2022-09-21T08:18:24;13.32;;;6.90;;
32637;SDS011;19045;52.268;10.506;2022-09-21T08:20:54;16.13;;;7.10;;
32637;SDS011;19045;52.268;10.506;2022-09-21T08:23:22;11.48;;;6.55;;
32637;SDS011;19045;52.268;10.506;2022-09-21T08:25:50;14.70;;;6.78;;
32637;SDS011;19045;52.268;10.506;2022-09-21T08:28:17;14.38;;;6.63;;
32637;SDS011;19045;52.268;10.506;2022-09-21T08:30:43;14.13;;;6.82;;
32637;SDS011;19045;52.268;10.506;2022-09-21T08:33:10;10.77;;;5.97;;
32637;SDS011;19045;52.268;10.506;2022-09-21T08:35:37;13.27;;;6.55;;
32637;SDS011;19045;52.268;10.506;2022-09-21T08:38:04;13.15;;;5.95;;
32637;SDS011;19045;52.268;10.506;2022-09-21T08:40:32;12.10;;;5.18;;
32637;SDS011;19045;52.268;10.506;2022-09-21T08:43:01;10.30;;;5.45;;
32637;SDS011;19045;52.268;10.506;2022-09-21T08:45:31;9.90;;;4.60;;
32637;SDS011;19045;52.268;10.506;2022-09-21T08:48:01;11.13;;;5.22;;
32637;SDS011;19045;52.268;10.506;2022-09-21T08:50:36;11.63;;;5.00;;
32637;SDS011;19045;52.268;10.506;2022-09-21T08:55:38;16.20;;;4.85;;
32637;SDS011;19045;52.268;10.506;2022-09-21T08:58:07;14.02;;;3.97;;
32637;SDS011;19045;52.268;10.506;2022-09-21T09:00:47;15.93;;;4.63;;
32637;SDS011;19045;52.268;10.506;2022-09-21T09:03:20;9.02;;;4.13;;
32637;SDS011;19045;52.268;10.506;2022-09-21T09:06:02;10.93;;;4.53;;
32637;SDS011;19045;52.268;10.506;2022-09-21T09:11:32;11.77;;;4.28;;
32637;SDS011;19045;52.268;10.506;2022-09-21T09:14:13;11.77;;;4.10;;
32637;SDS011;19045;52.268;10.506;2022-09-21T09:16:56;9.88;;;3.70;;
32637;SDS011;19045;52.268;10.506;2022-09-21T09:19:36;12.07;;;3.97;;
32637;SDS011;19045;52.268;10.506;2022-09-21T09:22:10;10.05;;;3.78;;
32637;SDS011;19045;52.268;10.506;2022-09-21T09:24:44;9.30;;;3.95;;
32637;SDS011;19045;52.268;10.506;2022-09-21T09:27:16;8.77;;;3.63;;
32637;SDS011;19045;52.268;10.506;2022-09-21T09:29:47;10.00;;;3.47;;
32637;SDS011;19045;52.268;10.506;2022-09-21T09:32:22;8.95;;;2.72;;
32637;SDS011;19045;52.268;10.506;2022-09-21T09:34:57;10.77;;;3.13;;
32637;SDS011;19045;52.268;10.506;2022-09-21T09:37:31;6.78;;;2.33;;
32637;SDS011;19045;52.268;10.506;2022-09-21T09:40:03;6.43;;;2.72;;
32637;SDS011;19045;52.268;10.506;2022-09-21T09:42:43;9.73;;;2.60;;
32637;SDS011;19045;52.268;10.506;2022-09-21T09:45:22;7.15;;;2.15;;
32637;SDS011;19045;52.268;10.506;2022-09-21T09:48:02;10.70;;;2.30;;
32637;SDS011;19045;52.268;10.506;2022-09-21T09:50:39;8.45;;;2.10;;
32637;SDS011;19045;52.268;10.506;2022-09-21T09:53:08;8.55;;;2.58;;
32637;SDS011;19045;52.268;10.506;2022-09-21T09:55:38;7.65;;;2.78;;
32637;SDS011;19045;52.268;10.506;2022-09-21T09:58:08;7.78;;;2.33;;
32637;SDS011;19045;52.268;10.506;2022-09-21T10:00:42;9.00;;;2.72;;
32637;SDS011;19045;52.268;10.506;2022-09-21T10:03:14;9.13;;;2.50;;
32637;SDS011;19045;52.268;10.506;2022-09-21T10:05:42;8.25;;;2.30;;
32637;SDS011;19045;52.268;10.506;2022-09-21T10:11:08;7.53;;;2.30;;
32637;SDS011;19045;52.268;10.506;2022-09-21T10:13:37;8.25;;;2.42;;
32637;SDS011;19045;52.268;10.506;2022-09-21T10:16:10;9.82;;;2.35;;
32637;SDS011;19045;52.268;10.506;2022-09-21T10:18:42;6.40;;;2.55;;
32637;SDS011;19045;52.268;10.506;2022-09-21T10:21:15;6.30;;;1.75;;
32637;SDS011;19045;52.268;10.506;2022-09-21T10:23:45;8.60;;;2.35;;
32637;SDS011;19045;52.268;10.506;2022-09-21T10:26:14;6.50;;;2.47;;
32637;SDS011;19045;52.268;10.506;2022-09-21T10:28:55;9.75;;;2.10;;
32637;SDS011;19045;52.268;10.506;2022-09-21T10:31:23;9.73;;;1.80;;
32637;SDS011;19045;52.268;10.506;2022-09-21T10:36:47;7.07;;;1.85;;
32637;SDS011;19045;52.268;10.506;2022-09-21T10:39:17;5.47;;;2.10;;
32637;SDS011;19045;52.268;10.506;2022-09-21T10:41:48;4.15;;;1.50;;
32637;SDS011;19045;52.268;10.506;2022-09-21T10:44:19;6.55;;;1.88;;
32637;SDS011;19045;52.268;10.506;2022-09-21T10:46:49;5.75;;;1.90;;
32637;SDS011;19045;52.268;10.506;2022-09-21T10:49:18;6.30;;;1.55;;
32637;SDS011;19045;52.268;10.506;2022-09-21T10:54:20;7.07;;;1.63;;
32637;SDS011;19045;52.268;10.506;2022-09-21T10:56:55;7.00;;;1.23;;
32637;SDS011;19045;52.268;10.506;2022-09-21T10:59:28;6.30;;;1.60;;
32637;SDS011;19045;52.268;10.506;2022-09-21T11:01:56;7.22;;;1.85;;
32637;SDS011;19045;52.268;10.506;2022-09-21T11:04:30;5.95;;;1.63;;
32637;SDS011;19045;52.268;10.506;2022-09-21T11:07:04;6.03;;;1.38;;
32637;SDS011;19045;52.268;10.506;2022-09-21T11:09:38;5.60;;;1.33;;
32637;SDS011;19045;52.268;10.506;2022-09-21T11:12:16;5.18;;;1.30;;
32637;SDS011;19045;52.268;10.506;2022-09-21T11:15:02;4.30;;;1.40;;
32637;SDS011;19045;52.268;10.506;2022-09-21T11:17:40;6.88;;;1.30;;
32637;SDS011;19045;52.268;10.506;2022-09-21T11:20:14;6.35;;;1.58;;
32637;SDS011;19045;52.268;10.506;2022-09-21T11:22:50;4.85;;;1.08;;
32637;SDS011;19045;52.268;10.506;2022-09-21T11:25:26;5.55;;;1.50;;
32637;SDS011;19045;52.268;10.506;2022-09-21T11:28:01;6.72;;;1.48;;
32637;SDS011;19045;52.268;10.506;2022-09-21T11:30:43;5.10;;;2.47;;
32637;SDS011;19045;52.268;10.506;2022-09-21T11:33:29;7.47;;;2.55;;
32637;SDS011;19045;52.268;10.506;2022-09-21T11:36:05;5.40;;;1.25;;
32637;SDS011;19045;52.268;10.506;2022-09-21T11:38:43;4.18;;;0.98;;
32637;SDS011;19045;52.268;10.506;2022-09-21T11:41:30;6.22;;;1.00;;
32637;SDS011;19045;52.268;10.506;2022-09-21T11:44:21;7.80;;;1.58;;
32637;SDS011;19045;52.268;10.506;2022-09-21T11:47:04;4.90;;;1.33;;
32637;SDS011;19045;52.268;10.506;2022-09-21T11:49:49;6.43;;;1.17;;
32637;SDS011;19045;52.268;10.506;2022-09-21T11:52:30;5.88;;;1.25;;
32637;SDS011;19045;52.268;10.506;2022-09-21T11:55:15;3.95;;;0.95;;
32637;SDS011;19045;52.268;10.506;2022-09-21T11:57:52;7.15;;;1.67;;
32637;SDS011;19045;52.268;10.506;2022-09-21T12:00:24;5.30;;;1.00;;
32637;SDS011;19045;52.268;10.506;2022-09-21T12:06:15;5.07;;;1.13;;
32637;SDS011;19045;52.268;10.506;2022-09-21T12:11:50;6.50;;;1.30;;
32637;SDS011;19045;52.268;10.506;2022-09-21T12:14:26;7.18;;;1.23;;
32637;SDS011;19045;52.268;10.506;2022-09-21T12:17:01;4.18;;;1.13;;
32637;SDS011;19045;52.268;10.506;2022-09-21T12:19:46;6.35;;;1.67;;
32637;SDS011;19045;52.268;10.506;2022-09-21T12:22:20;3.65;;;0.80;;
32637;SDS011;19045;52.268;10.506;2022-09-21T12:24:52;3.03;;;0.80;;
32637;SDS011;19045;52.268;10.506;2022-09-21T12:27:24;7.65;;;1.38;;
32637;SDS011;19045;52.268;10.506;2022-09-21T12:29:54;2.28;;;0.90;;
32637;SDS011;19045;52.268;10.506;2022-09-21T12:32:27;2.28;;;0.65;;
32637;SDS011;19045;52.268;10.506;2022-09-21T12:35:05;3.67;;;0.85;;
32637;SDS011;19045;52.268;10.506;2022-09-21T12:37:41;4.22;;;1.08;;
32637;SDS011;19045;52.268;10.506;2022-09-21T12:40:14;4.22;;;0.85;;
32637;SDS011;19045;52.268;10.506;2022-09-21T12:42:49;3.13;;;1.08;;
32637;SDS011;19045;52.268;10.506;2022-09-21T12:45:25;5.45;;;0.80;;
32637;SDS011;19045;52.268;10.506;2022-09-21T12:47:55;5.90;;;0.98;;
32637;SDS011;19045;52.268;10.506;2022-09-21T12:50:27;9.65;;;1.85;;
32637;SDS011;19045;52.268;10.506;2022-09-21T12:52:59;8.00;;;1.23;;
32637;SDS011;19045;52.268;10.506;2022-09-21T12:55:32;3.92;;;0.80;;
32637;SDS011;19045;52.268;10.506;2022-09-21T12:58:12;4.07;;;0.80;;
32637;SDS011;19045;52.268;10.506;2022-09-21T13:00:52;5.20;;;0.82;;
32637;SDS011;19045;52.268;10.506;2022-09-21T13:03:29;1.95;;;0.77;;
32637;SDS011;19045;52.268;10.506;2022-09-21T13:06:09;3.03;;;0.80;;
32637;SDS011;19045;52.268;10.506;2022-09-21T13:09:00;3.95;;;1.00;;
32637;SDS011;19045;52.268;10.506;2022-09-21T13:11:28;5.30;;;0.90;;
32637;SDS011;19045;52.268;10.506;2022-09-21T13:13:58;2.90;;;0.80;;
32637;SDS011;19045;52.268;10.506;2022-09-21T13:16:28;2.83;;;0.70;;
32637;SDS011;19045;52.268;10.506;2022-09-21T13:18:57;7.63;;;1.65;;
32637;SDS011;19045;52.268;10.506;2022-09-21T13:21:27;4.90;;;1.05;;
32637;SDS011;19045;52.268;10.506;2022-09-21T13:23:57;5.97;;;1.45;;
32637;SDS011;19045;52.268;10.506;2022-09-21T13:26:28;4.03;;;1.10;;
32637;SDS011;19045;52.268;10.506;2022-09-21T13:29:03;5.38;;;1.10;;
32637;SDS011;19045;52.268;10.506;2022-09-21T13:31:56;5.75;;;1.05;;
32637;SDS011;19045;52.268;10.506;2022-09-21T13:34:25;7.38;;;0.88;;
32637;SDS011;19045;52.268;10.506;2022-09-21T13:43:20;5.13;;;0.80;;
32637;SDS011;19045;52.268;10.506;2022-09-21T13:45:51;3.05;;;0.40;;
32637;SDS011;19045;52.268;10.506;2022-09-21T13:48:20;4.00;;;0.70;;
32637;SDS011;19045;52.268;10.506;2022-09-21T13:50:54;4.30;;;1.23;;
32637;SDS011;19045;52.268;10.506;2022-09-21T13:53:23;3.75;;;0.90;;
32637;SDS011;19045;52.268;10.506;2022-09-21T13:55:58;6.22;;;0.95;;
32637;SDS011;19045;52.268;10.506;2022-09-21T13:58:28;2.55;;;0.70;;
32637;SDS011;19045;52.268;10.506;2022-09-21T14:00:59;2.38;;;0.80;;
32637;SDS011;19045;52.268;10.506;2022-09-21T14:03:31;5.07;;;0.80;;
32637;SDS011;19045;52.268;10.506;2022-09-21T14:06:01;4.28;;;0.68;;
32637;SDS011;19045;52.268;10.506;2022-09-21T14:08:34;5.32;;;0.98;;
32637;SDS011;19045;52.268;10.506;2022-09-21T14:11:06;2.95;;;0.77;;
32637;SDS011;19045;52.268;10.506;2022-09-21T14:13:37;2.88;;;0.65;;
32637;SDS011;19045;52.268;10.506;2022-09-21T14:18:52;2.85;;;0.73;;
32637;SDS011;19045;52.268;10.506;2022-09-21T14:21:19;3.63;;;0.60;;
32637;SDS011;19045;52.268;10.506;2022-09-21T14:24:07;3.90;;;1.00;;
32637;SDS011;19045;52.268;10.506;2022-09-21T14:27:02;4.82;;;1.23;;
32637;SDS011;19045;52.268;10.506;2022-09-21T14:29:39;3.03;;;0.90;;
32637;SDS011;19045;52.268;10.506;2022-09-21T14:32:12;1.65;;;0.50;;
32637;SDS011;19045;52.268;10.506;2022-09-21T14:34:42;4.43;;;0.70;;
32637;SDS011;19045;52.268;10.506;2022-09-21T14:37:20;2.13;;;0.90;;
32637;SDS011;19045;52.268;10.506;2022-09-21T14:39:53;2.65;;;0.50;;
32637;SDS011;19045;52.268;10.506;2022-09-21T14:42:21;2.30;;;0.75;;
32637;SDS011;19045;52.268;10.506;2022-09-21T14:44:56;2.50;;;1.02;;
32637;SDS011;19045;52.268;10.506;2022-09-21T14:47:39;5.80;;;1.00;;
32637;SDS011;19045;52.268;10.506;2022-09-21T14:50:24;3.00;;;0.65;;
32637;SDS011;19045;52.268;10.506;2022-09-21T14:53:02;5.70;;;0.80;;
32637;SDS011;19045;52.268;10.506;2022-09-21T14:56:00;3.53;;;0.82;;
32637;SDS011;19045;52.268;10.506;2022-09-21T14:58:54;3.58;;;0.93;;
32637;SDS011;19045;52.268;10.506;2022-09-21T15:01:38;6.15;;;1.08;;
32637;SDS011;19045;52.268;10.506;2022-09-21T15:04:15;2.35;;;0.60;;
32637;SDS011;19045;52.268;10.506;2022-09-21T15:06:59;3.95;;;0.60;;
32637;SDS011;19045;52.268;10.506;2022-09-21T15:09:57;4.20;;;0.82;;
32637;SDS011;19045;52.268;10.506;2022-09-21T15:13:05;5.28;;;1.00;;
32637;SDS011;19045;52.268;10.506;2022-09-21T15:15:37;3.58;;;0.90;;
32637;SDS011;19045;52.268;10.506;2022-09-21T15:18:14;4.20;;;1.05;;
32637;SDS011;19045;52.268;10.506;2022-09-21T15:20:53;4.32;;;0.98;;
32637;SDS011;19045;52.268;10.506;2022-09-21T15:23:26;3.42;;;0.65;;
32637;SDS011;19045;52.268;10.506;2022-09-21T15:25:55;4.93;;;0.82;;